createdAt,value
2022-11-16T00:01:20.361Z,10.40
2022-11-16T00:03:51.571Z,10.40
2022-11-16T00:06:25.367Z,10.40
2022-11-16T00:09:24.280Z,10.40
2022-11-16T00:11:56.616Z,10.40
2022-11-16T00:14:29.366Z,10.40
2022-11-16T00:17:00.065Z,10.40
2022-11-16T00:19:31.601Z,10.30
2022-11-16T00:22:04.187Z,10.30
2022-11-16T00:24:34.246Z,10.30
2022-11-16T00:27:04.263Z,10.20
2022-11-16T00:29:34.292Z,10.20
2022-11-16T00:32:05.009Z,10.20
2022-11-16T00:34:36.259Z,10.20
2022-11-16T00:37:09.346Z,10.20
2022-11-16T00:39:39.383Z,10.20
2022-11-16T00:42:09.827Z,10.20
2022-11-16T00:44:39.856Z,10.20
2022-11-16T00:47:09.879Z,10.30
2022-11-16T00:49:40.247Z,10.30
2022-11-16T00:52:12.854Z,10.30
2022-11-16T00:54:42.897Z,10.30
2022-11-16T00:57:13.391Z,10.30
2022-11-16T00:59:43.468Z,10.30
2022-11-16T01:02:13.487Z,10.20
2022-11-16T01:04:44.450Z,10.30
2022-11-16T01:07:17.229Z,10.20
2022-11-16T01:09:47.488Z,10.10
2022-11-16T01:12:17.676Z,9.90
2022-11-16T01:14:50.453Z,9.80
2022-11-16T01:17:20.643Z,9.70
2022-11-16T01:19:50.664Z,9.60
2022-11-16T01:22:24.076Z,9.60
2022-11-16T01:24:54.251Z,9.60
2022-11-16T01:27:25.888Z,9.70
2022-11-16T01:29:57.196Z,9.60
2022-11-16T01:32:27.449Z,9.70
2022-11-16T01:34:57.962Z,9.60
2022-11-16T01:37:34.177Z,9.50
2022-11-16T01:40:04.533Z,9.30
2022-11-16T01:42:36.255Z,9.40
2022-11-16T01:45:21.777Z,9.50
2022-11-16T01:47:57.035Z,9.60
2022-11-16T01:50:31.367Z,9.50
2022-11-16T01:53:08.727Z,9.40
2022-11-16T01:55:50.310Z,9.40
2022-11-16T01:58:30.492Z,9.50
2022-11-16T02:01:07.712Z,9.50
2022-11-16T02:03:45.380Z,9.50
2022-11-16T02:06:39.198Z,9.50
2022-11-16T02:10:01.199Z,9.50
2022-11-16T02:13:08.634Z,9.50
2022-11-16T02:15:50.822Z,9.50
2022-11-16T02:18:41.332Z,9.60
2022-11-16T02:21:33.219Z,9.70
2022-11-16T02:24:44.868Z,9.70
2022-11-16T02:27:59.987Z,9.70
2022-11-16T02:30:32.749Z,9.60
2022-11-16T02:33:11.619Z,9.50
2022-11-16T02:35:48.919Z,9.60
2022-11-16T02:38:24.327Z,9.60
2022-11-16T02:41:00.682Z,9.70
2022-11-16T02:43:41.174Z,9.60
2022-11-16T02:46:21.421Z,9.50
2022-11-16T02:48:59.044Z,9.60
2022-11-16T02:51:32.156Z,9.60
2022-11-16T02:54:13.135Z,9.60
2022-11-16T02:56:55.279Z,9.70
2022-11-16T02:59:36.369Z,9.80
2022-11-16T03:02:26.164Z,9.80
2022-11-16T03:05:05.355Z,9.80
2022-11-16T03:07:49.700Z,9.80
2022-11-16T03:10:36.476Z,9.80
2022-11-16T03:13:13.315Z,9.80
2022-11-16T03:15:46.124Z,9.80
2022-11-16T03:18:23.086Z,9.80
2022-11-16T03:20:58.305Z,9.80
2022-11-16T03:23:30.326Z,9.80
2022-11-16T03:26:03.341Z,9.90
2022-11-16T03:28:42.832Z,9.90
2022-11-16T03:31:21.034Z,9.90
2022-11-16T03:33:58.827Z,9.90
2022-11-16T03:36:35.311Z,9.90
2022-11-16T03:39:13.891Z,9.80
2022-11-16T03:41:47.725Z,9.80
2022-11-16T03:44:21.533Z,9.80
2022-11-16T03:46:51.861Z,9.90
2022-11-16T03:49:27.206Z,9.80
2022-11-16T03:51:58.147Z,9.80
2022-11-16T03:54:29.029Z,9.80
2022-11-16T03:56:59.075Z,9.80
2022-11-16T03:59:30.488Z,9.70
2022-11-16T04:02:00.963Z,9.70
2022-11-16T04:04:46.161Z,9.70
2022-11-16T04:07:28.775Z,9.60
2022-11-16T04:10:11.341Z,9.70
2022-11-16T04:12:58.923Z,9.60
2022-11-16T04:15:41.560Z,9.70
2022-11-16T04:18:25.938Z,9.70
2022-11-16T04:21:11.899Z,9.80
2022-11-16T04:23:54.667Z,9.70
2022-11-16T04:26:46.711Z,9.70
2022-11-16T04:29:14.934Z,9.80
2022-11-16T04:31:57.716Z,9.80
2022-11-16T04:34:40.610Z,9.90
2022-11-16T04:37:34.010Z,9.90
2022-11-16T04:40:05.185Z,10.00
2022-11-16T04:42:35.255Z,10.10
2022-11-16T04:45:20.565Z,10.20
2022-11-16T04:47:55.107Z,10.10
2022-11-16T04:50:30.318Z,10.00
2022-11-16T04:53:04.950Z,10.00
2022-11-16T04:55:40.542Z,10.00
2022-11-16T04:58:11.458Z,9.80
2022-11-16T05:00:41.981Z,9.60
2022-11-16T05:03:13.291Z,9.50
2022-11-16T05:05:43.347Z,9.60
2022-11-16T05:08:16.097Z,9.70
2022-11-16T05:10:48.302Z,9.80
2022-11-16T05:13:18.410Z,9.80
2022-11-16T05:15:49.076Z,9.90
2022-11-16T05:18:19.658Z,9.90
2022-11-16T05:21:04.293Z,9.90
2022-11-16T05:23:54.574Z,10.00
2022-11-16T05:26:26.899Z,10.00
2022-11-16T05:28:59.027Z,10.10
2022-11-16T05:31:29.483Z,10.00
2022-11-16T05:33:59.477Z,10.00
2022-11-16T05:36:29.817Z,9.90
2022-11-16T05:39:02.481Z,9.80
2022-11-16T05:41:35.645Z,9.80
2022-11-16T05:44:06.660Z,9.90
2022-11-16T05:46:37.247Z,10.10
2022-11-16T05:49:09.171Z,10.10
2022-11-16T05:51:41.330Z,10.10
2022-11-16T05:54:15.522Z,10.10
2022-11-16T05:56:47.484Z,10.10
2022-11-16T05:59:19.653Z,10.10
2022-11-16T06:01:53.588Z,10.20
2022-11-16T06:04:25.075Z,10.10
2022-11-16T06:06:57.454Z,10.10
2022-11-16T06:09:35.310Z,10.10
2022-11-16T06:12:14.779Z,10.10
2022-11-16T06:14:45.166Z,10.10
2022-11-16T06:17:15.954Z,9.90
2022-11-16T06:19:47.054Z,9.90
2022-11-16T06:22:17.102Z,9.80
2022-11-16T06:24:49.990Z,9.70
2022-11-16T06:27:21.336Z,9.80
2022-11-16T06:29:51.474Z,9.80
2022-11-16T06:32:21.634Z,9.90
2022-11-16T06:34:51.706Z,9.90
2022-11-16T06:37:22.357Z,9.90
2022-11-16T06:39:55.250Z,9.90
2022-11-16T06:42:26.450Z,9.80
2022-11-16T06:44:57.861Z,9.80
2022-11-16T06:47:32.068Z,9.90
2022-11-16T06:50:03.614Z,10.00
2022-11-16T06:52:34.030Z,10.00
2022-11-16T06:55:07.532Z,10.00
2022-11-16T06:57:40.225Z,10.10
2022-11-16T07:00:14.184Z,10.10
2022-11-16T07:02:44.701Z,10.20
2022-11-16T07:05:18.596Z,10.20
2022-11-16T07:07:50.423Z,10.20
2022-11-16T07:10:23.781Z,10.20
2022-11-16T07:12:54.164Z,10.20
2022-11-16T07:15:25.434Z,10.10
2022-11-16T07:17:55.557Z,10.20
2022-11-16T07:20:25.700Z,10.20
2022-11-16T07:22:55.831Z,10.30
2022-11-16T07:25:28.419Z,10.20
2022-11-16T07:28:01.405Z,10.20
2022-11-16T07:30:32.866Z,10.20
2022-11-16T07:33:20.142Z,10.30
2022-11-16T07:36:21.734Z,10.20
2022-11-16T07:38:51.766Z,10.20
2022-11-16T07:41:25.027Z,10.20
2022-11-16T07:44:11.888Z,10.20
2022-11-16T07:46:47.210Z,10.30
2022-11-16T07:49:22.013Z,10.30
2022-11-16T07:51:58.936Z,10.50
2022-11-16T07:54:42.489Z,10.70
2022-11-16T07:57:15.194Z,10.80
2022-11-16T07:59:46.356Z,10.80
2022-11-16T08:02:16.525Z,10.90
2022-11-16T08:04:47.265Z,11.00
2022-11-16T08:07:17.406Z,11.20
2022-11-16T08:09:54.523Z,11.30
2022-11-16T08:12:28.513Z,11.30
2022-11-16T08:14:58.618Z,11.40
2022-11-16T08:17:28.862Z,11.50
2022-11-16T08:19:59.250Z,11.60
2022-11-16T08:22:29.632Z,11.80
2022-11-16T08:24:59.851Z,11.90
2022-11-16T08:27:34.402Z,12.00
2022-11-16T08:30:09.767Z,12.20
2022-11-16T08:32:42.518Z,12.40
2022-11-16T08:35:14.126Z,12.60
2022-11-16T08:37:44.190Z,12.60
2022-11-16T08:40:15.443Z,12.70
2022-11-16T08:42:48.961Z,12.80
2022-11-16T08:45:19.272Z,12.90
2022-11-16T08:47:49.890Z,12.90
2022-11-16T08:50:22.167Z,12.80
2022-11-16T08:52:52.234Z,12.80
2022-11-16T08:55:22.531Z,12.80
2022-11-16T08:57:55.211Z,12.90
2022-11-16T09:00:27.528Z,13.10
2022-11-16T09:02:57.530Z,13.00
2022-11-16T09:05:27.565Z,13.10
2022-11-16T09:07:57.830Z,13.20
2022-11-16T09:10:27.879Z,13.20
2022-11-16T09:13:01.286Z,13.30
2022-11-16T09:15:31.832Z,13.60
2022-11-16T09:18:02.256Z,13.80
2022-11-16T09:20:32.318Z,14.00
2022-11-16T09:23:02.594Z,14.20
2022-11-16T09:25:32.653Z,14.50
2022-11-16T09:28:06.275Z,14.50
2022-11-16T09:30:36.310Z,14.40
2022-11-16T09:33:06.458Z,14.10
2022-11-16T09:35:37.688Z,14.00
2022-11-16T09:38:09.895Z,14.00
2022-11-16T09:40:43.872Z,13.80
2022-11-16T09:43:45.326Z,13.60
2022-11-16T09:46:27.989Z,13.40
2022-11-16T09:49:13.948Z,13.20
2022-11-16T09:51:50.929Z,13.40
2022-11-16T09:54:27.044Z,14.00
2022-11-16T09:57:05.552Z,14.50
2022-11-16T09:59:46.814Z,14.60
2022-11-16T10:02:28.030Z,14.60
2022-11-16T10:05:07.003Z,14.80
2022-11-16T10:07:45.240Z,15.00
2022-11-16T10:10:17.720Z,15.00
2022-11-16T10:12:55.637Z,15.00
2022-11-16T10:15:48.050Z,14.70
2022-11-16T10:18:41.229Z,14.50
2022-11-16T10:21:28.411Z,14.50
2022-11-16T10:24:26.861Z,14.50
2022-11-16T10:27:21.774Z,14.50
2022-11-16T10:30:04.926Z,14.40
2022-11-16T10:32:46.667Z,14.30
2022-11-16T10:35:25.658Z,14.10
2022-11-16T10:37:59.038Z,14.10
2022-11-16T10:40:33.080Z,14.00
2022-11-16T10:43:13.753Z,13.90
2022-11-16T10:45:53.396Z,13.80
2022-11-16T10:48:41.385Z,13.70
2022-11-16T10:51:12.815Z,13.60
2022-11-16T10:53:45.707Z,13.40
2022-11-16T10:56:25.046Z,13.10
2022-11-16T10:58:59.299Z,12.80
2022-11-16T11:01:37.867Z,12.80
2022-11-16T11:04:24.726Z,12.90
2022-11-16T11:06:57.971Z,13.30
2022-11-16T11:09:33.246Z,13.70
2022-11-16T11:12:30.503Z,14.10
2022-11-16T11:15:26.174Z,14.60
2022-11-16T11:18:19.802Z,15.00
2022-11-16T11:21:10.224Z,15.00
2022-11-16T11:23:50.812Z,14.90
2022-11-16T11:26:37.113Z,14.80
2022-11-16T11:29:24.730Z,14.50
2022-11-16T11:31:57.936Z,14.30
2022-11-16T11:34:32.579Z,14.20
2022-11-16T11:37:08.650Z,14.10
2022-11-16T11:39:40.172Z,14.10
2022-11-16T11:42:26.482Z,14.30
2022-11-16T11:45:01.528Z,14.60
2022-11-16T11:48:00.725Z,15.10
2022-11-16T11:50:47.050Z,15.00
2022-11-16T11:53:37.138Z,14.70
2022-11-16T11:56:08.873Z,14.50
2022-11-16T11:58:44.128Z,14.80
2022-11-16T12:02:06.436Z,15.00
2022-11-16T12:05:12.999Z,15.10
2022-11-16T12:08:25.864Z,15.00
2022-11-16T12:11:03.302Z,14.90
2022-11-16T12:14:06.490Z,15.10
2022-11-16T12:16:53.339Z,15.10
2022-11-16T12:20:18.106Z,15.30
2022-11-16T12:23:15.942Z,15.30
2022-11-16T12:26:02.481Z,15.20
2022-11-16T12:28:58.424Z,15.40
2022-11-16T12:32:09.049Z,15.30
2022-11-16T12:34:59.406Z,14.80
2022-11-16T12:37:41.139Z,14.50
2022-11-16T12:40:45.163Z,14.30
2022-11-16T12:43:34.271Z,14.00
2022-11-16T12:46:17.866Z,13.70
2022-11-16T12:49:27.918Z,13.50
2022-11-16T12:52:22.838Z,13.40
2022-11-16T12:55:26.484Z,13.30
2022-11-16T12:58:17.195Z,13.30
2022-11-16T13:01:04.704Z,13.20
2022-11-16T13:03:47.005Z,13.10
2022-11-16T13:06:23.571Z,13.30
2022-11-16T13:09:04.113Z,13.30
2022-11-16T13:11:40.773Z,13.20
2022-11-16T13:14:19.855Z,13.20
2022-11-16T13:16:54.874Z,13.50
2022-11-16T13:19:27.198Z,13.40
2022-11-16T13:22:06.272Z,13.40
2022-11-16T13:24:52.620Z,13.50
2022-11-16T13:27:38.702Z,13.60
2022-11-16T13:30:21.564Z,13.60
2022-11-16T13:33:14.258Z,13.50
2022-11-16T13:35:44.815Z,13.40
2022-11-16T13:38:16.054Z,13.10
2022-11-16T13:40:46.155Z,13.00
2022-11-16T13:43:22.672Z,13.00
2022-11-16T13:46:03.958Z,13.00
2022-11-16T13:48:40.195Z,13.10
2022-11-16T13:51:21.295Z,13.20
2022-11-16T13:56:52.898Z,13.10
2022-11-16T13:59:29.824Z,13.20
2022-11-16T14:02:03.208Z,13.30
2022-11-16T14:04:57.949Z,13.30
2022-11-16T14:07:43.252Z,13.40
2022-11-16T14:10:35.002Z,13.50
2022-11-16T14:13:05.238Z,13.60
2022-11-16T14:15:38.741Z,13.70
2022-11-16T14:18:39.782Z,13.90
2022-11-16T14:21:26.840Z,14.00
2022-11-16T14:24:27.258Z,14.30
2022-11-16T14:27:13.266Z,14.40
2022-11-16T14:30:00.487Z,14.50
2022-11-16T14:32:42.385Z,14.60
2022-11-16T14:35:35.180Z,14.70
2022-11-16T14:38:19.525Z,14.60
2022-11-16T14:40:59.104Z,14.20
2022-11-16T14:43:37.729Z,13.80
2022-11-16T14:46:12.188Z,13.50
2022-11-16T14:48:48.499Z,13.20
2022-11-16T14:51:25.243Z,13.00
2022-11-16T14:54:05.310Z,12.80
2022-11-16T14:56:35.344Z,12.70
2022-11-16T14:59:06.306Z,12.50
2022-11-16T15:01:42.698Z,12.40
2022-11-16T15:04:15.225Z,12.30
2022-11-16T15:06:51.338Z,12.10
2022-11-16T15:09:30.787Z,12.10
2022-11-16T15:12:14.734Z,12.00
2022-11-16T15:14:52.774Z,11.80
2022-11-16T15:17:31.755Z,11.70
2022-11-16T15:20:06.966Z,11.70
2022-11-16T15:22:46.410Z,11.70
2022-11-16T15:25:32.798Z,11.50
2022-11-16T15:28:06.948Z,11.30
2022-11-16T15:30:40.745Z,11.20
2022-11-16T15:33:14.293Z,11.00
2022-11-16T15:35:44.456Z,10.80
2022-11-16T15:38:21.308Z,10.70
2022-11-16T15:40:57.206Z,10.70
2022-11-16T15:43:36.092Z,10.60
2022-11-16T15:46:11.876Z,10.50
2022-11-16T15:48:42.883Z,10.30
2022-11-16T15:51:20.145Z,10.20
2022-11-16T15:53:53.035Z,10.00
2022-11-16T15:56:35.480Z,9.80
2022-11-16T15:59:15.800Z,9.50
2022-11-16T16:01:47.962Z,9.40
2022-11-16T16:04:21.202Z,9.10
2022-11-16T16:06:55.062Z,8.90
2022-11-16T16:09:30.042Z,8.90
2022-11-16T16:12:20.491Z,8.70
2022-11-16T16:14:52.635Z,8.50
2022-11-16T16:17:28.159Z,8.40
2022-11-16T16:20:01.103Z,8.30
2022-11-16T16:22:34.826Z,8.20
2022-11-16T16:25:06.538Z,8.10
2022-11-16T16:27:42.839Z,8.00
2022-11-16T16:30:17.257Z,8.00
2022-11-16T16:32:52.074Z,8.00
2022-11-16T16:35:26.106Z,8.00
2022-11-16T16:38:01.551Z,8.00
2022-11-16T16:40:32.152Z,7.80
2022-11-16T16:43:04.696Z,7.70
2022-11-16T16:45:41.460Z,7.40
2022-11-16T16:48:12.677Z,7.40
2022-11-16T16:50:43.235Z,7.40
2022-11-16T16:53:15.814Z,7.50
2022-11-16T16:55:49.011Z,7.60
2022-11-16T16:58:21.678Z,7.80
2022-11-16T17:00:53.719Z,7.90
2022-11-16T17:03:27.021Z,7.90
2022-11-16T17:06:03.883Z,7.90
2022-11-16T17:08:37.136Z,7.80
2022-11-16T17:11:09.058Z,7.40
2022-11-16T17:13:41.745Z,7.30
2022-11-16T17:16:12.130Z,7.10
2022-11-16T17:18:42.220Z,7.10
2022-11-16T17:21:13.522Z,7.20
2022-11-16T17:23:43.565Z,7.20
2022-11-16T17:26:13.662Z,7.20
2022-11-16T17:28:46.425Z,7.20
2022-11-16T17:31:17.568Z,7.20
2022-11-16T17:33:47.816Z,7.20
2022-11-16T17:36:17.948Z,7.20
2022-11-16T17:38:48.285Z,7.20
2022-11-16T17:41:21.615Z,7.20
2022-11-16T17:43:57.161Z,7.20
2022-11-16T17:46:29.073Z,7.20
2022-11-16T17:48:59.611Z,7.10
2022-11-16T17:51:30.308Z,7.10
2022-11-16T17:54:00.462Z,7.10
2022-11-16T17:56:31.670Z,7.00
2022-11-16T17:59:04.661Z,7.10
2022-11-16T18:01:35.281Z,7.10
2022-11-16T18:04:05.609Z,7.10
2022-11-16T18:06:35.715Z,7.20
2022-11-16T18:09:05.820Z,7.10
2022-11-16T18:11:35.999Z,7.10
2022-11-16T18:14:10.543Z,7.10
2022-11-16T18:16:44.447Z,7.00
2022-11-16T18:19:20.198Z,6.80
2022-11-16T18:21:50.988Z,6.80
2022-11-16T18:24:21.040Z,6.80
2022-11-16T18:26:51.156Z,6.90
2022-11-16T18:29:23.745Z,6.90
2022-11-16T18:31:53.802Z,6.90
2022-11-16T18:34:23.821Z,6.90
2022-11-16T18:36:53.852Z,6.70
2022-11-16T18:39:23.842Z,6.80
2022-11-16T18:41:55.326Z,6.80
2022-11-16T18:44:28.077Z,6.70
2022-11-16T18:46:59.386Z,6.60
2022-11-16T18:49:29.402Z,6.50
2022-11-16T18:51:59.484Z,6.50
2022-11-16T18:54:29.492Z,6.20
2022-11-16T18:56:59.843Z,6.10
2022-11-16T18:59:32.515Z,6.10
2022-11-16T19:02:02.613Z,6.20
2022-11-16T19:04:32.749Z,6.10
2022-11-16T19:07:02.816Z,5.90
2022-11-16T19:09:32.882Z,5.80
2022-11-16T19:12:02.894Z,5.80
2022-11-16T19:14:35.506Z,5.80
2022-11-16T19:17:05.759Z,5.50
2022-11-16T19:19:35.765Z,5.40
2022-11-16T19:22:06.275Z,5.50
2022-11-16T19:24:36.304Z,5.50
2022-11-16T19:27:06.665Z,5.60
2022-11-16T19:29:39.299Z,5.70
2022-11-16T19:32:09.335Z,5.70
2022-11-16T19:34:39.312Z,5.70
2022-11-16T19:37:09.425Z,5.60
2022-11-16T19:39:39.488Z,5.60
2022-11-16T19:42:09.910Z,5.30
2022-11-16T19:44:42.555Z,5.30
2022-11-16T19:47:12.584Z,5.40
2022-11-16T19:49:42.672Z,5.40
2022-11-16T19:52:12.804Z,5.40
2022-11-16T19:54:42.790Z,5.40
2022-11-16T19:57:13.030Z,5.40
2022-11-16T19:59:46.084Z,5.30
2022-11-16T20:02:16.393Z,5.30
2022-11-16T20:04:46.515Z,5.20
2022-11-16T20:07:18.168Z,5.20
2022-11-16T20:09:53.229Z,5.30
2022-11-16T20:12:23.610Z,5.50
2022-11-16T20:14:56.224Z,5.50
2022-11-16T20:17:26.260Z,5.50
2022-11-16T20:19:56.439Z,5.60
2022-11-16T20:22:26.818Z,5.50
2022-11-16T20:24:57.442Z,5.50
2022-11-16T20:27:27.458Z,5.40
2022-11-16T20:30:03.755Z,5.40
2022-11-16T20:32:36.753Z,5.20
2022-11-16T20:35:07.374Z,5.10
2022-11-16T20:37:37.509Z,5.10
2022-11-16T20:40:09.577Z,4.80
2022-11-16T20:42:39.957Z,4.80
2022-11-16T20:45:14.324Z,4.90
2022-11-16T20:47:44.404Z,4.90
2022-11-16T20:50:14.589Z,4.90
2022-11-16T20:52:48.562Z,4.90
2022-11-16T20:55:22.636Z,5.00
2022-11-16T20:57:52.657Z,5.00
2022-11-16T21:00:25.916Z,5.10
2022-11-16T21:02:56.473Z,5.20
2022-11-16T21:05:26.446Z,5.20
2022-11-16T21:07:56.727Z,5.20
2022-11-16T21:10:26.730Z,5.30
2022-11-16T21:13:09.221Z,5.40
2022-11-16T21:15:41.820Z,5.40
2022-11-16T21:18:12.061Z,5.40
2022-11-16T21:20:42.098Z,5.40
2022-11-16T21:23:12.195Z,5.40
2022-11-16T21:25:42.496Z,5.30
2022-11-16T21:28:12.522Z,5.30
2022-11-16T21:30:45.215Z,5.30
2022-11-16T21:33:15.184Z,5.30
2022-11-16T21:35:45.251Z,5.30
2022-11-16T21:38:15.259Z,5.30
2022-11-16T21:40:46.720Z,5.30
2022-11-16T21:43:17.239Z,5.30
2022-11-16T21:45:51.521Z,5.20
2022-11-16T21:48:21.690Z,5.20
2022-11-16T21:51:01.510Z,5.20
2022-11-16T21:53:32.220Z,5.30
2022-11-16T21:56:02.994Z,5.40
2022-11-16T21:58:33.273Z,5.40
2022-11-16T22:01:06.330Z,5.50
2022-11-16T22:03:37.065Z,5.40
2022-11-16T22:06:22.463Z,5.50
2022-11-16T22:08:52.995Z,5.50
2022-11-16T22:11:23.478Z,5.50
2022-11-16T22:13:53.775Z,5.60
2022-11-16T22:16:26.442Z,5.70
2022-11-16T22:18:56.631Z,5.80
2022-11-16T22:21:26.591Z,5.70
2022-11-16T22:23:56.653Z,5.90
2022-11-16T22:26:27.027Z,5.90
2022-11-16T22:28:57.045Z,6.00
2022-11-16T22:31:29.587Z,6.10
2022-11-16T22:33:59.710Z,6.10
2022-11-16T22:36:29.668Z,6.30
2022-11-16T22:38:59.789Z,6.20
2022-11-16T22:41:29.843Z,6.20
2022-11-16T22:43:59.842Z,6.20
2022-11-16T22:46:32.509Z,6.30
2022-11-16T22:49:02.746Z,6.40
2022-11-16T22:51:33.631Z,6.50
2022-11-16T22:54:07.192Z,6.50
2022-11-16T22:56:37.353Z,6.60
2022-11-16T22:59:08.943Z,6.60
2022-11-16T23:01:41.940Z,6.60
2022-11-16T23:04:12.297Z,6.60
2022-11-16T23:06:42.363Z,6.60
2022-11-16T23:09:12.349Z,6.70
2022-11-16T23:11:54.797Z,6.60
2022-11-16T23:14:37.373Z,6.70
2022-11-16T23:17:10.153Z,6.80
2022-11-16T23:19:52.900Z,6.80
2022-11-16T23:22:37.254Z,6.80
2022-11-16T23:25:21.813Z,6.90
2022-11-16T23:27:59.815Z,6.90
2022-11-16T23:30:29.939Z,6.90
2022-11-16T23:33:02.602Z,6.90
2022-11-16T23:35:33.790Z,7.00
2022-11-16T23:38:06.494Z,7.10
2022-11-16T23:40:39.962Z,7.10
2022-11-16T23:43:25.554Z,7.10
2022-11-16T23:45:56.447Z,7.20
2022-11-16T23:48:29.025Z,7.20
2022-11-16T23:50:59.068Z,7.20
2022-11-16T23:53:29.131Z,7.20
2022-11-16T23:56:06.145Z,7.20
2022-11-16T23:58:36.410Z,7.20
